KECS Airport (Mondell Field) Information

FAA: ECS - ICAO: KECS

KECS Airport Location

State Wyoming
County Weston
City Newcastle
KECS Airport is 5 miles northwest of Newcastle, WY.
Latitude 43-53-03.3000N
Longitude 104-18-52.2000W
Elevation 4,177ft

KECS Airport METARs

METAR KECS 201955Z AUTO 35014G18KT 10SM SCT043 SCT060 BKN110 18/05 A3000 RMK AO2
Altimeter 30.00"
Temperature 18.0°C (64.4°F)
Wind 350° at 14KT with gusts to 18KT
Clouds scattered at 4,300ft scattered at 6,000ft broken at 11,000ft
Visibility 10.0mi
Time observed: 2021-06-20T19:55:00Z

KECS Airport Details

Status Operational
Activation December 1938
Ownership Public
Usage Public
Chart CHEYENNE
ATC on-site No
Beacon schedule sunset-sunrise
Beacon color clear green

KECS Airport Contacts

Owner CITY OF NEWCASTLE/WESTON CO
Owner address COUNTY COURT HOUSE/1 W MAIN, NEWCASTLE, WY 82701
Owner phone 307-746-4744
Manager WILLIAM BRIDGES
Manager address P.O. BOX 29, BASIN, WY 82410
Manager phone 307-568-2551

KECS Airport (Mondell Field) Radio Frequencies

KECS (Airport) Radio Frequencies

UNICOM 122.8
Common traffic advisory frequency (CTAF) 122.8